Moritz — AEEC — position and weather

sailwx.info

Track history (hours):
 
Tides and Currents Weather Stations Pressure Air Temp Water Temp Dewpoint Dewpoint Depression Visibility Wind Speed Wind Dir Waves Ship Positions

Moritz

Last reported at 2018-Apr-24 12:29 UTC. Time now 2018-Apr-24 12:50 UTC.
Position N 40°44' W 074°01'.

Length 18 m.

Type: Ship. MMSI: 366999444.

Date/timePositionNaut miles runAvg speedWind from/ knotsBaromVisibWave heightAir tempDewpointWater temp
2018-Apr-24 12:29N 40°44' W 074°01'2 5.0
2018-Apr-24 12:00N 40°42' W 074°02'2 3.6
2018-Apr-24 11:30N 40°41' W 074°04'1 0.0
2018-Apr-23 18:34N 40°40' W 074°04'1 7.8
2018-Apr-23 18:29N 40°40' W 074°03'2 1.3
2018-Apr-23 17:05N 40°38' W 074°03'110.0
2018-Apr-23 17:00N 40°39' W 074°02'0 0.1
2018-Apr-23 15:33N 40°39' W 074°02'110.1
2018-Apr-23 15:27N 40°38' W 074°03'2 0.7
2018-Apr-23 12:09N 40°40' W 074°03'1 8.6
2018-Apr-23 12:00N 40°41' W 074°04'  
2018-Apr-20 18:35N 40°41' W 074°04'1 6.9
2018-Apr-20 18:30N 40°40' W 074°04'1 2.2
2018-Apr-20 18:00N 40°40' W 074°05'3 6.5
2018-Apr-20 17:30N 40°42' W 074°02'2 0.8
2018-Apr-20 15:01N 40°44' W 074°02'0 7.4
2018-Apr-20 15:00N 40°44' W 074°01'611.8
2018-Apr-20 14:30N 40°50' W 073°58'3 6.0
2018-Apr-20 14:00N 40°52' W 073°56'3 7.1
2018-Apr-20 13:30N 40°49' W 073°58'4 7.6
2018-Apr-20 13:00N 40°46' W 074°01'4 7.5
2018-Apr-20 12:30N 40°42' W 074°02'2 4.3
2018-Apr-20 12:00N 40°41' W 074°04'0 0.0
2018-Apr-20 11:30N 40°41' W 074°04'0 0.0
2018-Apr-19 18:54N 40°41' W 074°04'4 9.5
2018-Apr-19 18:29N 40°37' W 074°03'3 5.8
2018-Apr-19 18:00N 40°40' W 074°03'1 0.4
2018-Apr-19 14:47N 40°40' W 074°01'2 8.2
2018-Apr-19 14:30N 40°37' W 074°03'3 5.0
2018-Apr-19 14:00N 40°39' W 074°05'2 5.1
2018-Apr-19 13:30N 40°40' W 074°08'1 2.8
2018-Apr-19 13:00N 40°39' W 074°09'4 7.3
2018-Apr-19 12:30N 40°40' W 074°04'1 0.0
2018-Apr-18 18:35N 40°41' W 074°04'1 7.8
2018-Apr-18 18:30N 40°40' W 074°03'1 2.0
2018-Apr-18 18:00N 40°41' W 074°02'612.4
2018-Apr-18 17:30N 40°47' W 073°60'2 4.8
2018-Apr-18 17:00N 40°45' W 074°01'1 0.2
2018-Apr-18 14:44N 40°44' W 074°01'2 9.9
2018-Apr-18 14:31N 40°42' W 074°02'3 6.4
2018-Apr-18 14:01N 40°39' W 074°04'3 5.9
2018-Apr-18 13:29N 40°40' W 074°08'1 1.3
2018-Apr-18 13:00N 40°41' W 074°09'2 5.0
2018-Apr-18 12:30N 40°38' W 074°09'4 8.2
2018-Apr-18 12:01N 40°40' W 074°04'1 2.8
2018-Apr-18 11:30N 40°41' W 074°04'0 0.0
2018-Apr-17 18:39N 40°41' W 074°04'0 2.9
2018-Apr-17 18:30N 40°41' W 074°04'1 1.9
2018-Apr-17 18:01N 40°40' W 074°05'4 7.4
2018-Apr-17 17:31N 40°43' W 074°02'2 0.8
2018-Apr-17 15:01N 40°45' W 074°01'0 7.2
2018-Apr-17 15:00N 40°45' W 074°01'3 6.1
2018-Apr-17 14:30N 40°42' W 074°01'4 8.5
2018-Apr-17 14:00N 40°38' W 074°03'4 7.6
2018-Apr-17 13:30N 40°34' W 074°03'1 1.6
2018-Apr-17 12:58N 40°33' W 074°02'614.1
2018-Apr-17 12:30N 40°40' W 074°04'2 3.0
2018-Apr-17 12:01N 40°41' W 074°04'0 0.2
2018-Apr-17 11:30N 40°41' W 074°04'0 0.1
2018-Apr-17 11:01N 40°41' W 074°04'0 0.0
2018-Apr-16 18:41N 40°41' W 074°04'1 3.2
2018-Apr-16 18:30N 40°41' W 074°04'2 5.0
2018-Apr-16 18:00N 40°40' W 074°01'0 0.0
2018-Apr-16 12:56N 40°40' W 074°01'1 2.8
2018-Apr-16 12:30N 40°40' W 074°02'2 3.8
2018-Apr-16 12:00N 40°41' W 074°04'0 0.0
2018-Apr-16 11:30N 40°41' W 074°04'  
Track history (hours):
 
Tides and Currents Weather Stations Pressure Air Temp Water Temp Dewpoint Dewpoint Depression Visibility Wind Speed Wind Dir Waves Ship Positions

Moritz

Last reported at 2018-Apr-24 12:29 UTC. Time now 2018-Apr-24 12:50 UTC.
Position N 40°44' W 074°01'.

Length 18 m.

Type: Ship. MMSI: 366999444.

Date/timePositionNaut miles runAvg speedWind from/ knotsBaromVisibWave heightAir tempDewpointWater temp
2018-Apr-24 12:29N 40°44' W 074°01'2 5.0
2018-Apr-24 12:00N 40°42' W 074°02'2 3.6
2018-Apr-24 11:30N 40°41' W 074°04'1 0.0
2018-Apr-23 18:34N 40°40' W 074°04'1 7.8
2018-Apr-23 18:29N 40°40' W 074°03'2 1.3
2018-Apr-23 17:05N 40°38' W 074°03'110.0
2018-Apr-23 17:00N 40°39' W 074°02'0 0.1
2018-Apr-23 15:33N 40°39' W 074°02'110.1
2018-Apr-23 15:27N 40°38' W 074°03'2 0.7
2018-Apr-23 12:09N 40°40' W 074°03'1 8.6
2018-Apr-23 12:00N 40°41' W 074°04'  
2018-Apr-20 18:35N 40°41' W 074°04'1 6.9
2018-Apr-20 18:30N 40°40' W 074°04'1 2.2
2018-Apr-20 18:00N 40°40' W 074°05'3 6.5
2018-Apr-20 17:30N 40°42' W 074°02'2 0.8
2018-Apr-20 15:01N 40°44' W 074°02'0 7.4
2018-Apr-20 15:00N 40°44' W 074°01'611.8
2018-Apr-20 14:30N 40°50' W 073°58'3 6.0
2018-Apr-20 14:00N 40°52' W 073°56'3 7.1
2018-Apr-20 13:30N 40°49' W 073°58'4 7.6
2018-Apr-20 13:00N 40°46' W 074°01'4 7.5
2018-Apr-20 12:30N 40°42' W 074°02'2 4.3
2018-Apr-20 12:00N 40°41' W 074°04'0 0.0
2018-Apr-20 11:30N 40°41' W 074°04'0 0.0
2018-Apr-19 18:54N 40°41' W 074°04'4 9.5
2018-Apr-19 18:29N 40°37' W 074°03'3 5.8
2018-Apr-19 18:00N 40°40' W 074°03'1 0.4
2018-Apr-19 14:47N 40°40' W 074°01'2 8.2
2018-Apr-19 14:30N 40°37' W 074°03'3 5.0
2018-Apr-19 14:00N 40°39' W 074°05'2 5.1
2018-Apr-19 13:30N 40°40' W 074°08'1 2.8
2018-Apr-19 13:00N 40°39' W 074°09'4 7.3
2018-Apr-19 12:30N 40°40' W 074°04'1 0.0
2018-Apr-18 18:35N 40°41' W 074°04'1 7.8
2018-Apr-18 18:30N 40°40' W 074°03'1 2.0
2018-Apr-18 18:00N 40°41' W 074°02'612.4
2018-Apr-18 17:30N 40°47' W 073°60'2 4.8
2018-Apr-18 17:00N 40°45' W 074°01'1 0.2
2018-Apr-18 14:44N 40°44' W 074°01'2 9.9
2018-Apr-18 14:31N 40°42' W 074°02'3 6.4
2018-Apr-18 14:01N 40°39' W 074°04'3 5.9
2018-Apr-18 13:29N 40°40' W 074°08'1 1.3
2018-Apr-18 13:00N 40°41' W 074°09'2 5.0
2018-Apr-18 12:30N 40°38' W 074°09'4 8.2
2018-Apr-18 12:01N 40°40' W 074°04'1 2.8
2018-Apr-18 11:30N 40°41' W 074°04'0 0.0
2018-Apr-17 18:39N 40°41' W 074°04'0 2.9
2018-Apr-17 18:30N 40°41' W 074°04'1 1.9
2018-Apr-17 18:01N 40°40' W 074°05'4 7.4
2018-Apr-17 17:31N 40°43' W 074°02'2 0.8
2018-Apr-17 15:01N 40°45' W 074°01'0 7.2
2018-Apr-17 15:00N 40°45' W 074°01'3 6.1
2018-Apr-17 14:30N 40°42' W 074°01'4 8.5
2018-Apr-17 14:00N 40°38' W 074°03'4 7.6
2018-Apr-17 13:30N 40°34' W 074°03'1 1.6
2018-Apr-17 12:58N 40°33' W 074°02'614.1
2018-Apr-17 12:30N 40°40' W 074°04'2 3.0
2018-Apr-17 12:01N 40°41' W 074°04'0 0.2
2018-Apr-17 11:30N 40°41' W 074°04'0 0.1
2018-Apr-17 11:01N 40°41' W 074°04'0 0.0
2018-Apr-16 18:41N 40°41' W 074°04'1 3.2
2018-Apr-16 18:30N 40°41' W 074°04'2 5.0
2018-Apr-16 18:00N 40°40' W 074°01'0 0.0
2018-Apr-16 12:56N 40°40' W 074°01'1 2.8
2018-Apr-16 12:30N 40°40' W 074°02'2 3.8
2018-Apr-16 12:00N 40°41' W 074°04'0 0.0
2018-Apr-16 11:30N 40°41' W 074°04'  

Dump ship's entire track history